createdAt,value
2022-10-17T00:00:34.340Z,5.00
2022-10-17T00:02:07.480Z,5.28
2022-10-17T00:03:39.948Z,4.40
2022-10-17T00:05:12.202Z,4.40
2022-10-17T00:06:44.065Z,4.80
2022-10-17T00:08:16.601Z,4.70
2022-10-17T00:09:48.372Z,4.70
2022-10-17T00:11:21.492Z,4.30
2022-10-17T00:12:53.264Z,4.70
2022-10-17T00:14:24.984Z,5.10
2022-10-17T00:15:56.720Z,4.72
2022-10-17T00:17:30.386Z,5.00
2022-10-17T00:19:02.767Z,5.50
2022-10-17T00:20:35.180Z,4.80
2022-10-17T00:22:09.002Z,5.20
2022-10-17T00:23:40.704Z,5.95
2022-10-17T00:25:12.505Z,4.55
2022-10-17T00:26:44.246Z,5.15
2022-10-17T00:28:16.158Z,4.70
2022-10-17T00:29:48.793Z,4.60
2022-10-17T00:31:20.913Z,4.07
2022-10-17T00:32:54.019Z,4.45
2022-10-17T00:34:25.751Z,5.03
2022-10-17T00:36:03.714Z,5.10
2022-10-17T00:37:35.524Z,4.70
2022-10-17T00:39:07.291Z,5.20
2022-10-17T00:40:39.033Z,4.70
2022-10-17T00:42:12.309Z,4.38
2022-10-17T00:43:54.519Z,4.50
2022-10-17T00:45:26.514Z,4.50
2022-10-17T00:46:58.422Z,4.10
2022-10-17T00:48:31.634Z,4.70
2022-10-17T00:50:03.776Z,5.70
2022-10-17T00:51:38.045Z,4.35
2022-10-17T00:53:09.896Z,4.35
2022-10-17T00:54:44.139Z,4.72
2022-10-17T00:56:15.867Z,4.20
2022-10-17T00:57:47.644Z,4.38
2022-10-17T00:59:20.208Z,3.85
2022-10-17T01:00:52.127Z,4.40
2022-10-17T01:02:23.918Z,4.18
2022-10-17T01:03:56.969Z,5.50
2022-10-17T01:05:28.831Z,4.75
2022-10-17T01:07:00.584Z,4.93
2022-10-17T01:08:32.537Z,5.00
2022-10-17T01:10:05.138Z,4.10
2022-10-17T01:11:39.523Z,3.85
2022-10-17T01:13:13.354Z,4.40
2022-10-17T01:14:48.890Z,3.97
2022-10-17T01:16:25.475Z,4.28
2022-10-17T01:18:04.732Z,3.70
2022-10-17T01:19:53.431Z,4.20
2022-10-17T01:21:30.249Z,3.80
2022-10-17T01:23:10.714Z,3.63
2022-10-17T01:24:48.949Z,3.80
2022-10-17T01:26:25.133Z,4.47
2022-10-17T01:28:01.313Z,4.13
2022-10-17T01:29:37.125Z,3.50
2022-10-17T01:31:12.184Z,3.47
2022-10-17T01:32:45.751Z,3.75
2022-10-17T01:34:19.863Z,3.70
2022-10-17T01:35:53.724Z,4.00
2022-10-17T01:37:28.169Z,4.00
2022-10-17T01:39:02.293Z,4.10
2022-10-17T01:40:35.987Z,3.90
2022-10-17T01:42:11.553Z,4.40
2022-10-17T01:43:45.324Z,4.18
2022-10-17T01:45:18.339Z,4.22
2022-10-17T01:46:51.824Z,5.10
2022-10-17T01:48:24.630Z,4.28
2022-10-17T01:49:58.430Z,3.65
2022-10-17T01:51:31.384Z,4.13
2022-10-17T01:53:05.020Z,4.28
2022-10-17T01:54:38.860Z,4.22
2022-10-17T01:56:10.588Z,3.85
2022-10-17T01:57:44.176Z,4.80
2022-10-17T01:59:17.533Z,4.43
2022-10-17T02:00:49.282Z,4.35
2022-10-17T02:02:22.405Z,3.80
2022-10-17T02:03:54.314Z,4.28
2022-10-17T02:05:28.808Z,3.90
2022-10-17T02:07:06.550Z,3.80
2022-10-17T02:08:43.082Z,4.53
2022-10-17T02:10:18.158Z,4.22
2022-10-17T02:11:59.751Z,4.45
2022-10-17T02:13:37.409Z,4.50
2022-10-17T02:15:31.049Z,3.92
2022-10-17T02:17:07.488Z,4.75
2022-10-17T02:18:47.687Z,3.97
2022-10-17T02:20:21.967Z,4.00
2022-10-17T02:21:56.885Z,4.40
2022-10-17T02:23:33.694Z,4.22
2022-10-17T02:25:09.669Z,4.20
2022-10-17T02:26:43.129Z,4.65
2022-10-17T02:28:19.162Z,4.95
2022-10-17T02:29:54.432Z,4.45
2022-10-17T02:31:27.067Z,4.78
2022-10-17T02:32:59.856Z,4.95
2022-10-17T02:34:34.973Z,6.38
2022-10-17T02:36:12.204Z,4.93
2022-10-17T02:37:44.047Z,5.50
2022-10-17T02:39:15.963Z,6.50
2022-10-17T02:40:47.757Z,5.85
2022-10-17T02:42:19.524Z,6.05
2022-10-17T02:43:51.325Z,5.45
2022-10-17T02:45:26.086Z,5.30
2022-10-17T02:47:01.682Z,5.90
2022-10-17T02:48:35.886Z,6.35
2022-10-17T02:50:09.370Z,6.18
2022-10-17T02:51:43.337Z,5.95
2022-10-17T02:53:15.868Z,7.38
2022-10-17T02:54:49.058Z,6.10
2022-10-17T02:56:21.419Z,6.10
2022-10-17T02:57:54.116Z,6.32
2022-10-17T02:59:25.953Z,5.68
2022-10-17T03:00:57.927Z,5.78
2022-10-17T03:02:30.150Z,6.22
2022-10-17T03:04:06.779Z,6.63
2022-10-17T03:05:43.041Z,12.13
2022-10-17T03:07:14.771Z,7.10
2022-10-17T03:08:46.477Z,11.70
2022-10-17T03:10:18.188Z,6.25
2022-10-17T03:11:49.913Z,8.13
2022-10-17T03:13:21.585Z,6.38
2022-10-17T03:14:53.301Z,6.88
2022-10-17T03:16:25.086Z,6.47
2022-10-17T03:17:57.023Z,5.82
2022-10-17T03:19:28.742Z,6.65
2022-10-17T03:21:01.950Z,5.63
2022-10-17T03:22:33.779Z,5.68
2022-10-17T03:24:05.955Z,6.13
2022-10-17T03:25:37.837Z,6.57
2022-10-17T03:27:09.659Z,6.15
2022-10-17T03:28:41.444Z,7.28
2022-10-17T03:30:13.245Z,5.95
2022-10-17T03:31:45.134Z,6.85
2022-10-17T03:33:17.061Z,6.32
2022-10-17T03:34:48.757Z,7.40
2022-10-17T03:36:21.882Z,5.20
2022-10-17T03:37:55.235Z,5.90
2022-10-17T03:39:26.969Z,6.25
2022-10-17T03:40:58.735Z,5.72
2022-10-17T03:42:31.710Z,5.60
2022-10-17T03:44:03.614Z,5.90
2022-10-17T03:45:35.323Z,5.93
2022-10-17T03:47:09.242Z,5.40
2022-10-17T03:48:43.634Z,5.32
2022-10-17T03:50:15.558Z,5.90
2022-10-17T03:51:48.778Z,4.85
2022-10-17T03:53:20.515Z,5.22
2022-10-17T03:54:52.352Z,5.50
2022-10-17T03:56:24.788Z,5.30
2022-10-17T03:57:56.645Z,6.70
2022-10-17T03:59:28.516Z,6.03
2022-10-17T04:01:04.233Z,5.80
2022-10-17T04:02:36.015Z,6.43
2022-10-17T04:04:07.796Z,6.25
2022-10-17T04:05:39.594Z,4.95
2022-10-17T04:07:13.302Z,5.40
2022-10-17T04:08:45.234Z,5.43
2022-10-17T04:10:18.969Z,4.85
2022-10-17T04:11:50.779Z,5.03
2022-10-17T04:13:22.558Z,6.03
2022-10-17T04:14:54.679Z,5.72
2022-10-17T04:16:26.648Z,6.00
2022-10-17T04:17:58.439Z,6.30
2022-10-17T04:19:30.221Z,8.05
2022-10-17T04:21:02.562Z,5.70
2022-10-17T04:22:35.715Z,6.13
2022-10-17T04:24:08.922Z,7.05
2022-10-17T04:25:40.694Z,5.95
2022-10-17T04:27:12.463Z,6.88
2022-10-17T04:28:44.201Z,7.15
2022-10-17T04:30:16.370Z,6.63
2022-10-17T04:31:48.235Z,7.35
2022-10-17T04:33:20.045Z,6.57
2022-10-17T04:34:51.786Z,6.97
2022-10-17T04:36:23.552Z,7.20
2022-10-17T04:37:56.887Z,8.05
2022-10-17T04:39:29.395Z,8.00
2022-10-17T04:41:06.786Z,8.07
2022-10-17T04:42:38.481Z,10.25
2022-10-17T04:44:10.376Z,10.25
2022-10-17T04:45:42.079Z,8.35
2022-10-17T04:47:13.859Z,12.68
2022-10-17T04:48:45.631Z,8.90
2022-10-17T04:50:17.920Z,7.32
2022-10-17T04:51:49.681Z,7.15
2022-10-17T04:53:22.849Z,8.05
2022-10-17T04:54:54.644Z,6.30
2022-10-17T04:56:26.462Z,8.95
2022-10-17T04:57:58.231Z,6.10
2022-10-17T04:59:30.100Z,15.00
2022-10-17T05:01:05.134Z,8.02
2022-10-17T05:02:38.352Z,6.20
2022-10-17T05:04:10.283Z,4.90
2022-10-17T05:05:42.125Z,5.10
2022-10-17T05:07:13.839Z,4.90
2022-10-17T05:08:47.534Z,5.20
2022-10-17T05:10:19.216Z,6.55
2022-10-17T05:11:50.861Z,5.28
2022-10-17T05:13:22.587Z,5.60
2022-10-17T05:14:54.382Z,14.23
2022-10-17T05:16:26.525Z,29.70
2022-10-17T05:17:58.334Z,41.38
2022-10-17T05:19:30.337Z,32.05
2022-10-17T05:21:03.277Z,15.43
2022-10-17T05:22:38.239Z,11.98
2022-10-17T05:24:15.238Z,6.65
2022-10-17T05:25:46.947Z,5.70
2022-10-17T05:27:19.007Z,4.43
2022-10-17T05:28:52.402Z,5.20
2022-10-17T05:30:24.291Z,4.50
2022-10-17T05:31:56.036Z,6.10
2022-10-17T05:33:27.731Z,5.40
2022-10-17T05:34:59.446Z,5.97
2022-10-17T05:36:31.212Z,6.03
2022-10-17T05:38:02.952Z,5.88
2022-10-17T05:39:36.063Z,5.95
2022-10-17T05:41:07.792Z,5.88
2022-10-17T05:44:11.262Z,5.20
2022-10-17T05:45:43.092Z,3.83
2022-10-17T05:47:14.903Z,3.55
2022-10-17T05:48:46.741Z,3.80
2022-10-17T05:50:21.558Z,8.43
2022-10-17T05:51:53.242Z,5.45
2022-10-17T05:53:24.973Z,11.82
2022-10-17T05:54:58.065Z,21.83
2022-10-17T05:56:29.725Z,19.27
2022-10-17T05:58:01.470Z,15.98
2022-10-17T05:59:33.210Z,12.15
2022-10-17T06:01:07.165Z,10.93
2022-10-17T06:02:41.339Z,10.43
2022-10-17T06:04:13.087Z,9.98
2022-10-17T06:05:44.830Z,8.90
2022-10-17T06:07:16.669Z,9.40
2022-10-17T06:08:48.397Z,9.50
2022-10-17T06:10:21.506Z,6.45
2022-10-17T06:11:53.273Z,7.13
2022-10-17T06:13:25.032Z,6.15
2022-10-17T06:14:56.760Z,6.97
2022-10-17T06:16:28.552Z,5.50
2022-10-17T06:18:00.259Z,5.93
2022-10-17T06:19:32.061Z,6.50
2022-10-17T06:21:04.023Z,6.88
2022-10-17T06:22:35.765Z,6.32
2022-10-17T06:24:07.524Z,6.60
2022-10-17T06:25:40.686Z,6.63
2022-10-17T06:27:12.604Z,7.07
2022-10-17T06:28:44.616Z,8.75
2022-10-17T06:30:17.619Z,9.15
2022-10-17T06:31:49.457Z,9.35
2022-10-17T06:33:21.586Z,11.30
2022-10-17T06:34:53.368Z,19.13
2022-10-17T06:36:25.078Z,16.92
2022-10-17T06:37:56.774Z,8.75
2022-10-17T06:39:33.906Z,16.17
2022-10-17T06:41:08.881Z,7.55
2022-10-17T06:42:41.529Z,8.70
2022-10-17T06:44:13.292Z,8.18
2022-10-17T06:45:45.977Z,19.48
2022-10-17T06:47:19.932Z,5.85
2022-10-17T06:48:51.994Z,7.07
2022-10-17T06:50:23.789Z,10.38
2022-10-17T06:51:55.544Z,5.03
2022-10-17T06:53:28.590Z,6.57
2022-10-17T06:55:00.471Z,27.50
2022-10-17T06:56:34.915Z,10.02
2022-10-17T06:58:06.647Z,6.80
2022-10-17T06:59:38.439Z,7.68
2022-10-17T07:01:11.158Z,8.07
2022-10-17T07:02:42.907Z,7.93
2022-10-17T07:04:14.669Z,6.55
2022-10-17T07:05:51.728Z,6.85
2022-10-17T07:07:23.530Z,19.65
2022-10-17T07:08:55.788Z,17.50
2022-10-17T07:10:27.553Z,8.05
2022-10-17T07:12:00.818Z,5.80
2022-10-17T07:13:36.766Z,12.68
2022-10-17T07:15:11.421Z,24.80
2022-10-17T07:16:43.142Z,8.60
2022-10-17T07:18:15.012Z,15.50
2022-10-17T07:19:46.942Z,11.88
2022-10-17T07:21:18.695Z,22.73
2022-10-17T07:22:50.504Z,6.65
2022-10-17T07:24:22.302Z,14.05
2022-10-17T07:25:58.898Z,6.90
2022-10-17T07:27:32.456Z,21.20
2022-10-17T07:29:06.484Z,10.70
2022-10-17T07:30:38.336Z,6.57
2022-10-17T07:32:10.205Z,13.65
2022-10-17T07:33:42.495Z,7.25
2022-10-17T07:35:14.424Z,6.10
2022-10-17T07:36:46.255Z,7.65
2022-10-17T07:38:18.105Z,7.90
2022-10-17T07:39:50.035Z,11.93
2022-10-17T07:41:21.928Z,10.93
2022-10-17T07:42:56.435Z,13.00
2022-10-17T07:44:28.190Z,9.85
2022-10-17T07:46:00.667Z,8.68
2022-10-17T07:47:35.626Z,11.13
2022-10-17T07:49:07.497Z,13.73
2022-10-17T07:50:39.626Z,12.77
2022-10-17T07:52:12.013Z,10.45
2022-10-17T07:53:46.546Z,12.65
2022-10-17T07:55:20.667Z,10.50
2022-10-17T07:56:58.083Z,16.58
2022-10-17T07:58:31.576Z,19.70
2022-10-17T08:00:03.600Z,9.95
2022-10-17T08:01:35.208Z,13.75
2022-10-17T08:03:06.971Z,9.60
2022-10-17T08:04:39.141Z,30.85
2022-10-17T08:06:10.794Z,20.67
2022-10-17T08:07:42.401Z,146.65
2022-10-17T08:09:14.002Z,64.63
2022-10-17T08:10:45.644Z,16.65
2022-10-17T08:12:17.274Z,21.02
2022-10-17T08:13:50.220Z,17.10
2022-10-17T08:15:21.862Z,16.40
2022-10-17T08:16:54.308Z,17.95
2022-10-17T08:18:25.864Z,13.00
2022-10-17T08:19:57.450Z,10.13
2022-10-17T08:21:29.032Z,13.75
2022-10-17T08:23:00.596Z,23.20
2022-10-17T08:24:32.297Z,52.60
2022-10-17T08:26:05.198Z,52.00
2022-10-17T08:27:36.835Z,49.78
2022-10-17T08:29:13.214Z,37.45
2022-10-17T08:30:44.887Z,29.73
2022-10-17T08:32:16.619Z,22.13
2022-10-17T08:33:48.985Z,18.48
2022-10-17T08:35:22.114Z,25.88
2022-10-17T08:36:53.763Z,24.85
2022-10-17T08:38:27.766Z,46.92
2022-10-17T08:39:59.530Z,24.35
2022-10-17T08:41:39.502Z,13.65
2022-10-17T08:43:18.724Z,24.88
2022-10-17T08:44:54.750Z,29.35
2022-10-17T08:46:29.681Z,32.90
2022-10-17T08:48:02.036Z,23.25
2022-10-17T08:49:37.760Z,16.55
2022-10-17T08:51:12.573Z,12.75
2022-10-17T08:52:46.597Z,15.65
2022-10-17T08:54:20.029Z,13.98
2022-10-17T08:55:52.589Z,13.88
2022-10-17T08:57:24.147Z,12.40
2022-10-17T08:58:55.698Z,27.75
2022-10-17T09:00:29.659Z,30.70
2022-10-17T09:02:03.669Z,22.00
2022-10-17T09:03:42.464Z,16.98
2022-10-17T09:05:32.021Z,10.88
2022-10-17T09:07:05.525Z,10.82
2022-10-17T09:08:40.150Z,11.00
2022-10-17T09:10:15.846Z,14.18
2022-10-17T09:11:55.417Z,11.02
2022-10-17T09:13:40.690Z,14.43
2022-10-17T09:15:34.349Z,12.70
2022-10-17T09:17:15.600Z,14.15
2022-10-17T09:18:50.459Z,14.43
2022-10-17T09:20:23.793Z,16.35
2022-10-17T09:21:57.233Z,11.82
2022-10-17T09:23:31.463Z,12.57
2022-10-17T09:25:05.257Z,31.70
2022-10-17T09:26:37.255Z,21.98
2022-10-17T09:28:13.906Z,14.73
2022-10-17T09:29:46.178Z,22.23
2022-10-17T09:31:24.247Z,13.27
2022-10-17T09:32:55.927Z,11.88
2022-10-17T09:34:28.441Z,12.73
2022-10-17T09:36:00.117Z,10.85
2022-10-17T09:37:31.815Z,10.57
2022-10-17T09:39:04.913Z,10.77
2022-10-17T09:40:36.998Z,16.85
2022-10-17T09:42:10.205Z,13.60
2022-10-17T09:43:41.796Z,11.30
2022-10-17T09:45:16.589Z,19.40
2022-10-17T09:46:59.636Z,11.75
2022-10-17T09:48:33.191Z,10.20
2022-10-17T09:50:08.195Z,10.35
2022-10-17T09:51:40.411Z,15.43
2022-10-17T09:53:13.871Z,13.88
2022-10-17T09:54:46.783Z,10.18
2022-10-17T09:56:19.101Z,11.20
2022-10-17T09:57:55.336Z,9.57
2022-10-17T09:59:35.351Z,11.57
2022-10-17T10:01:20.974Z,12.95
2022-10-17T10:03:10.543Z,10.00
2022-10-17T10:05:03.745Z,9.75
2022-10-17T10:06:36.495Z,12.00
2022-10-17T10:08:15.353Z,12.88
2022-10-17T10:09:47.180Z,10.25
2022-10-17T10:11:47.053Z,8.95
2022-10-17T10:13:20.444Z,8.88
2022-10-17T10:18:34.374Z,9.13
2022-10-17T10:20:28.645Z,9.50
2022-10-17T10:22:01.168Z,7.78
2022-10-17T10:23:32.970Z,8.88
2022-10-17T10:25:08.434Z,8.98
2022-10-17T10:26:41.011Z,8.85
2022-10-17T10:28:12.592Z,7.70
2022-10-17T10:29:49.718Z,8.13
2022-10-17T10:31:26.330Z,6.25
2022-10-17T10:32:58.493Z,6.85
2022-10-17T10:34:32.663Z,6.45
2022-10-17T10:36:06.345Z,5.82
2022-10-17T10:37:39.539Z,6.25
2022-10-17T10:39:22.922Z,6.68
2022-10-17T10:40:55.279Z,6.25
2022-10-17T10:42:29.062Z,6.05
2022-10-17T10:44:01.776Z,5.95
2022-10-17T10:45:49.112Z,6.30
2022-10-17T10:47:23.291Z,6.30
2022-10-17T10:48:58.562Z,6.38
2022-10-17T10:50:33.250Z,5.82
2022-10-17T10:52:04.831Z,5.50
2022-10-17T10:53:41.912Z,6.13
2022-10-17T10:55:21.320Z,5.50
2022-10-17T10:56:53.716Z,5.70
2022-10-17T10:58:42.119Z,5.40
2022-10-17T11:00:16.469Z,5.40
2022-10-17T11:01:50.732Z,5.32
2022-10-17T11:03:26.314Z,5.43
2022-10-17T11:04:59.504Z,5.93
2022-10-17T11:06:34.503Z,5.78
2022-10-17T11:08:10.807Z,6.30
2022-10-17T11:09:51.145Z,6.57
2022-10-17T11:11:26.177Z,5.47
2022-10-17T11:13:01.498Z,4.68
2022-10-17T11:14:41.679Z,4.63
2022-10-17T11:16:18.872Z,4.00
2022-10-17T11:17:56.873Z,4.00
2022-10-17T11:19:31.616Z,4.50
2022-10-17T11:21:06.032Z,4.50
2022-10-17T11:22:43.932Z,4.53
2022-10-17T11:24:19.291Z,4.38
2022-10-17T11:25:51.820Z,4.30
2022-10-17T11:27:24.015Z,4.25
2022-10-17T11:28:57.515Z,4.20
2022-10-17T11:30:42.280Z,4.28
2022-10-17T11:32:17.928Z,4.20
2022-10-17T11:33:50.738Z,3.75
2022-10-17T11:35:24.651Z,3.92
2022-10-17T11:36:57.980Z,3.97
2022-10-17T11:38:38.396Z,3.95
2022-10-17T11:40:20.422Z,4.28
2022-10-17T11:41:57.546Z,3.70
2022-10-17T11:43:33.036Z,3.50
2022-10-17T11:45:06.633Z,3.80
2022-10-17T11:46:38.418Z,3.20
2022-10-17T11:48:12.788Z,3.50
2022-10-17T11:49:47.251Z,3.55
2022-10-17T11:53:14.884Z,3.70
2022-10-17T11:54:50.568Z,3.78
2022-10-17T11:56:25.659Z,3.70
2022-10-17T11:58:09.971Z,3.60
2022-10-17T11:59:58.340Z,3.80
2022-10-17T12:01:33.879Z,3.70
2022-10-17T12:03:13.402Z,3.60
2022-10-17T12:04:49.600Z,4.00
2022-10-17T12:06:29.602Z,3.70
2022-10-17T12:08:05.733Z,3.90
2022-10-17T12:09:41.161Z,3.88
2022-10-17T12:11:30.773Z,3.60
2022-10-17T12:13:40.494Z,4.13
2022-10-17T12:15:28.604Z,4.05
2022-10-17T12:17:00.406Z,3.97
2022-10-17T12:18:32.283Z,4.38
2022-10-17T12:20:27.740Z,4.30
2022-10-17T12:22:20.983Z,4.20
2022-10-17T12:23:52.732Z,4.10
2022-10-17T12:25:26.375Z,4.43
2022-10-17T12:27:11.807Z,5.82
2022-10-17T12:28:43.912Z,6.05
2022-10-17T12:30:22.601Z,4.88
2022-10-17T12:31:54.201Z,4.22
2022-10-17T12:33:32.076Z,4.47
2022-10-17T12:35:03.945Z,4.75
2022-10-17T12:36:44.334Z,4.88
2022-10-17T12:38:27.919Z,4.93
2022-10-17T12:40:01.514Z,5.30
2022-10-17T12:41:52.781Z,4.90
2022-10-17T12:43:57.440Z,4.32
2022-10-17T12:45:48.911Z,4.70
2022-10-17T12:47:37.961Z,5.30
2022-10-17T12:49:39.957Z,5.65
2022-10-17T12:53:04.877Z,5.20
2022-10-17T12:54:47.669Z,5.15
2022-10-17T12:56:34.355Z,5.22
2022-10-17T12:58:08.316Z,5.47
2022-10-17T12:59:43.578Z,9.27
2022-10-17T13:01:24.108Z,5.80
2022-10-17T13:02:57.382Z,11.07
2022-10-17T13:04:29.005Z,6.75
2022-10-17T13:06:02.401Z,5.15
2022-10-17T13:07:34.661Z,5.90
2022-10-17T13:09:08.757Z,5.93
2022-10-17T13:10:43.059Z,5.40
2022-10-17T13:12:17.976Z,6.53
2022-10-17T13:13:51.976Z,5.60
2022-10-17T13:15:24.937Z,5.50
2022-10-17T13:16:57.660Z,5.00
2022-10-17T13:18:29.448Z,13.05
2022-10-17T13:20:01.456Z,5.40
2022-10-17T13:21:33.267Z,6.57
2022-10-17T13:23:04.967Z,5.13
2022-10-17T13:24:37.784Z,5.60
2022-10-17T13:26:15.418Z,7.65
2022-10-17T13:27:47.134Z,7.63
2022-10-17T13:29:20.328Z,7.25
2022-10-17T13:30:54.722Z,6.35
2022-10-17T13:32:35.661Z,5.30
2022-10-17T13:34:16.023Z,17.17
2022-10-17T13:36:00.100Z,38.13
2022-10-17T13:37:32.585Z,9.73
2022-10-17T13:39:09.394Z,13.20
2022-10-17T13:40:49.915Z,7.38
2022-10-17T13:42:24.224Z,10.63
2022-10-17T13:43:58.030Z,5.82
2022-10-17T13:45:30.913Z,10.48
2022-10-17T13:47:03.976Z,8.82
2022-10-17T13:48:36.954Z,12.52
2022-10-17T13:50:39.536Z,6.43
2022-10-17T13:52:05.725Z,5.55
2022-10-17T13:53:39.865Z,6.15
2022-10-17T13:55:17.541Z,5.47
2022-10-17T13:58:29.894Z,5.20
2022-10-17T14:00:09.877Z,5.72
2022-10-17T14:01:43.269Z,5.60
2022-10-17T14:03:16.254Z,5.80
2022-10-17T14:05:15.565Z,5.88
2022-10-17T14:06:41.222Z,5.40
2022-10-17T14:08:21.692Z,8.32
2022-10-17T14:09:54.950Z,5.90
2022-10-17T14:11:30.539Z,6.18
2022-10-17T14:13:02.229Z,6.40
2022-10-17T14:14:51.733Z,6.35
2022-10-17T14:16:26.820Z,6.40
2022-10-17T14:18:02.313Z,7.05
2022-10-17T14:19:37.259Z,7.03
2022-10-17T14:24:53.338Z,6.50
2022-10-17T14:26:25.283Z,6.75
2022-10-17T14:28:03.467Z,7.07
2022-10-17T14:29:50.499Z,6.50
2022-10-17T14:31:29.860Z,6.38
2022-10-17T14:33:03.427Z,7.10
2022-10-17T14:34:37.456Z,6.97
2022-10-17T14:36:09.027Z,7.25
2022-10-17T14:37:43.891Z,7.00
2022-10-17T14:39:19.420Z,6.60
2022-10-17T14:40:51.650Z,7.25
2022-10-17T14:42:23.221Z,7.15
2022-10-17T14:43:56.271Z,6.65
2022-10-17T14:45:30.498Z,6.70
2022-10-17T14:47:30.329Z,6.47
2022-10-17T14:48:58.848Z,6.38
2022-10-17T14:50:32.170Z,6.80
2022-10-17T14:52:25.360Z,7.43
2022-10-17T14:54:16.147Z,7.07
2022-10-17T14:55:55.570Z,6.45
2022-10-17T14:57:39.548Z,7.50
2022-10-17T14:59:15.647Z,7.78
2022-10-17T15:00:53.070Z,7.43
2022-10-17T15:02:24.907Z,6.65
2022-10-17T15:03:56.486Z,6.40
2022-10-17T15:05:28.133Z,6.60
2022-10-17T15:07:01.073Z,6.57
2022-10-17T15:08:32.662Z,6.35
2022-10-17T15:10:05.075Z,6.63
2022-10-17T15:11:36.723Z,6.55
2022-10-17T15:15:00.356Z,5.55
2022-10-17T15:16:32.707Z,5.75
2022-10-17T15:18:04.437Z,5.57
2022-10-17T15:19:36.006Z,5.65
2022-10-17T15:21:19.703Z,6.00
2022-10-17T15:23:00.797Z,5.63
2022-10-17T15:24:32.381Z,5.28
2022-10-17T15:26:08.418Z,7.20
2022-10-17T15:27:40.014Z,7.20
2022-10-17T15:29:13.117Z,6.40
2022-10-17T15:30:44.895Z,5.57
2022-10-17T15:32:16.531Z,4.88
2022-10-17T15:33:48.238Z,4.70
2022-10-17T15:35:20.258Z,4.38
2022-10-17T15:36:51.977Z,4.25
2022-10-17T15:38:24.903Z,4.35
2022-10-17T15:39:56.618Z,4.30
2022-10-17T15:41:29.230Z,4.57
2022-10-17T15:43:00.920Z,4.32
2022-10-17T15:44:32.525Z,4.57
2022-10-17T15:46:05.000Z,4.38
2022-10-17T15:47:37.519Z,4.10
2022-10-17T15:49:11.316Z,4.10
2022-10-17T15:50:42.932Z,4.43
2022-10-17T15:52:14.515Z,4.43
2022-10-17T15:53:47.494Z,4.68
2022-10-17T15:55:19.183Z,4.88
2022-10-17T15:56:53.912Z,4.80
2022-10-17T15:58:28.326Z,4.80
2022-10-17T16:00:00.276Z,4.00
2022-10-17T16:01:32.108Z,3.92
2022-10-17T16:03:03.920Z,4.20
2022-10-17T16:04:35.490Z,4.47
2022-10-17T16:06:10.724Z,4.05
2022-10-17T16:07:46.546Z,3.80
2022-10-17T16:09:19.488Z,3.60
2022-10-17T16:10:51.332Z,4.03
2022-10-17T16:12:26.389Z,3.80
2022-10-17T16:13:58.966Z,3.70
2022-10-17T16:15:30.608Z,3.95
2022-10-17T16:17:02.175Z,4.07
2022-10-17T16:18:33.780Z,3.90
2022-10-17T16:20:06.141Z,3.60
2022-10-17T16:21:39.001Z,3.85
2022-10-17T16:23:11.732Z,4.18
2022-10-17T16:24:45.039Z,4.90
2022-10-17T16:26:16.706Z,5.15
2022-10-17T16:27:49.114Z,5.07
2022-10-17T16:29:20.745Z,5.03
2022-10-17T16:30:52.300Z,4.75
2022-10-17T16:32:23.930Z,4.70
2022-10-17T16:33:56.081Z,4.45
2022-10-17T16:35:31.933Z,4.30
2022-10-17T16:37:06.647Z,4.18
2022-10-17T16:38:38.278Z,4.20
2022-10-17T16:40:11.808Z,3.85
2022-10-17T16:41:43.475Z,4.18
2022-10-17T16:43:17.450Z,4.50
2022-10-17T16:44:49.136Z,4.18
2022-10-17T16:46:21.193Z,4.60
2022-10-17T16:47:53.525Z,4.30
2022-10-17T16:49:25.108Z,4.38
2022-10-17T16:50:56.702Z,4.55
2022-10-17T16:52:28.660Z,4.40
2022-10-17T16:54:00.685Z,4.10
2022-10-17T16:55:33.628Z,4.57
2022-10-17T16:57:05.357Z,4.03
2022-10-17T16:58:37.078Z,4.45
2022-10-17T17:00:11.939Z,4.40
2022-10-17T17:01:43.787Z,4.50
2022-10-17T17:03:15.507Z,4.95
2022-10-17T17:04:47.230Z,7.32
2022-10-17T17:06:23.109Z,9.15
2022-10-17T17:07:55.977Z,9.75
2022-10-17T17:09:27.856Z,7.20
2022-10-17T17:11:01.011Z,5.82
2022-10-17T17:12:33.310Z,4.97
2022-10-17T17:14:05.335Z,4.95
2022-10-17T17:15:38.411Z,5.35
2022-10-17T17:17:19.373Z,4.90
2022-10-17T17:19:02.962Z,5.45
2022-10-17T17:20:34.956Z,5.88
2022-10-17T17:22:06.691Z,6.50
2022-10-17T17:23:39.469Z,5.75
2022-10-17T17:25:11.363Z,6.05
2022-10-17T17:26:45.014Z,5.93
2022-10-17T17:28:16.754Z,5.80
2022-10-17T17:29:48.522Z,5.95
2022-10-17T17:31:22.148Z,5.30
2022-10-17T17:32:53.885Z,5.75
2022-10-17T17:34:25.628Z,5.30
2022-10-17T17:35:58.116Z,5.20
2022-10-17T17:37:30.091Z,5.40
2022-10-17T17:39:04.998Z,5.22
2022-10-17T17:40:36.777Z,5.50
2022-10-17T17:42:09.870Z,5.60
2022-10-17T17:43:42.149Z,5.28
2022-10-17T17:45:13.850Z,5.00
2022-10-17T17:46:45.793Z,5.30
2022-10-17T17:48:17.540Z,5.30
2022-10-17T17:49:49.231Z,4.75
2022-10-17T17:51:26.897Z,5.05
2022-10-17T17:53:00.984Z,5.22
2022-10-17T17:54:35.049Z,5.43
2022-10-17T17:56:08.883Z,4.93
2022-10-17T17:57:42.004Z,5.53
2022-10-17T17:59:13.822Z,4.93
2022-10-17T18:00:45.511Z,5.40
2022-10-17T18:02:17.239Z,5.10
2022-10-17T18:03:49.723Z,6.30
2022-10-17T18:05:21.544Z,5.20
2022-10-17T18:06:53.446Z,4.85
2022-10-17T18:08:25.328Z,4.53
2022-10-17T18:09:57.140Z,4.90
2022-10-17T18:11:28.958Z,4.78
2022-10-17T18:13:02.077Z,4.35
2022-10-17T18:14:34.130Z,4.15
2022-10-17T18:16:13.218Z,4.57
2022-10-17T18:17:44.916Z,4.35
2022-10-17T18:19:16.783Z,4.65
2022-10-17T18:20:48.530Z,4.20
2022-10-17T18:22:23.211Z,4.93
2022-10-17T18:23:54.981Z,4.55
2022-10-17T18:25:26.728Z,4.85
2022-10-17T18:26:59.924Z,5.10
2022-10-17T18:28:35.334Z,4.60
2022-10-17T18:30:08.551Z,4.55
2022-10-17T18:31:40.532Z,4.57
2022-10-17T18:33:12.207Z,4.57
2022-10-17T18:34:44.215Z,4.68
2022-10-17T18:36:15.912Z,4.88
2022-10-17T18:37:48.655Z,4.30
2022-10-17T18:39:20.345Z,4.78
2022-10-17T18:41:01.574Z,4.10
2022-10-17T18:42:33.427Z,4.45
2022-10-17T18:44:06.648Z,4.78
2022-10-17T18:45:41.398Z,4.68
2022-10-17T18:47:17.101Z,4.55
2022-10-17T18:48:49.239Z,4.20
2022-10-17T18:50:21.108Z,4.15
2022-10-17T18:51:55.978Z,4.00
2022-10-17T18:53:27.705Z,4.30
2022-10-17T18:54:59.486Z,4.40
2022-10-17T18:56:33.827Z,5.20
2022-10-17T18:58:05.759Z,4.50
2022-10-17T18:59:38.921Z,4.60
2022-10-17T19:01:11.653Z,4.18
2022-10-17T19:02:43.393Z,4.28
2022-10-17T19:04:15.212Z,4.05
2022-10-17T19:05:47.573Z,4.22
2022-10-17T19:07:22.420Z,4.40
2022-10-17T19:08:57.293Z,4.88
2022-10-17T19:10:31.094Z,4.50
2022-10-17T19:12:02.867Z,4.53
2022-10-17T19:13:34.870Z,4.85
2022-10-17T19:15:08.643Z,4.68
2022-10-17T19:16:41.401Z,5.00
2022-10-17T19:18:14.207Z,4.38
2022-10-17T19:19:50.467Z,4.28
2022-10-17T19:21:23.586Z,4.70
2022-10-17T19:22:55.720Z,4.50
2022-10-17T19:24:29.024Z,4.78
2022-10-17T19:26:06.092Z,4.50
2022-10-17T19:27:37.796Z,5.20
2022-10-17T19:29:09.777Z,4.82
2022-10-17T19:30:43.358Z,4.55
2022-10-17T19:32:17.927Z,4.85
2022-10-17T19:33:53.264Z,5.00
2022-10-17T19:35:24.981Z,4.75
2022-10-17T19:36:56.826Z,4.72
2022-10-17T19:38:28.641Z,4.53
2022-10-17T19:40:00.467Z,4.78
2022-10-17T19:41:32.194Z,4.63
2022-10-17T19:43:03.933Z,5.20
2022-10-17T19:44:38.452Z,5.13
2022-10-17T19:46:14.723Z,4.95
2022-10-17T19:47:46.447Z,5.13
2022-10-17T19:49:18.264Z,5.72
2022-10-17T19:50:50.236Z,5.30
2022-10-17T19:52:22.021Z,5.40
2022-10-17T19:53:54.642Z,5.78
2022-10-17T19:55:28.946Z,5.93
2022-10-17T19:57:00.644Z,5.90
2022-10-17T19:58:43.727Z,5.45
2022-10-17T20:00:15.536Z,5.63
2022-10-17T20:01:48.711Z,6.45
2022-10-17T20:03:20.678Z,5.65
2022-10-17T20:04:54.755Z,5.68
2022-10-17T20:06:44.122Z,5.65
2022-10-17T20:08:15.849Z,6.22
2022-10-17T20:09:50.041Z,6.30
2022-10-17T20:11:28.441Z,6.05
2022-10-17T20:13:05.978Z,6.30
2022-10-17T20:14:41.014Z,6.05
2022-10-17T20:16:14.038Z,5.75
2022-10-17T20:17:49.394Z,6.97
2022-10-17T20:19:21.113Z,7.10
2022-10-17T20:20:52.993Z,7.03
2022-10-17T20:22:24.825Z,6.10
2022-10-17T20:23:56.562Z,6.68
2022-10-17T20:25:28.232Z,6.40
2022-10-17T20:26:59.914Z,6.50
2022-10-17T20:28:31.753Z,9.15
2022-10-17T20:30:07.827Z,6.55
2022-10-17T20:31:40.344Z,6.50
2022-10-17T20:33:15.756Z,6.38
2022-10-17T20:34:47.405Z,6.95
2022-10-17T20:36:23.258Z,6.45
2022-10-17T20:37:55.094Z,6.10
2022-10-17T20:39:27.013Z,6.43
2022-10-17T20:41:00.753Z,5.85
2022-10-17T20:42:32.494Z,5.78
2022-10-17T20:44:06.789Z,6.75
2022-10-17T20:45:50.891Z,6.75
2022-10-17T20:47:40.061Z,6.63
2022-10-17T20:49:20.412Z,5.65
2022-10-17T20:50:52.120Z,5.90
2022-10-17T20:52:23.860Z,6.00
2022-10-17T20:53:58.213Z,5.82
2022-10-17T20:55:30.113Z,6.18
2022-10-17T20:57:04.809Z,7.05
2022-10-17T20:58:36.902Z,5.40
2022-10-17T21:00:09.902Z,6.40
2022-10-17T21:01:41.827Z,5.60
2022-10-17T21:03:13.546Z,5.80